KAVL/AVL METAR and TAF weather

Enter ICAO airport designator
Station Type Date Time Source
KAVL METAR 2019/04/18 09:54 UTC NOAA

KAVL 180954Z AUTO 16003KT 10SM CLR 16/11 A3001 RMK AO2 SLP139 T01610106


Station Type Date Time Source
KAVL Decoded METAR 2019/04/18 09:54 UTC NOAA

ASHEVILLE REGIONAL AIRPORT, NC, United States (KAVL) 35-26N 82-32W 670M
Apr 18, 2019 - 05:54 AM EDT / 2019.04.18 0954 UTC
Wind: from the SSE (160 degrees) at 3 MPH (3 KT):0
Visibility: 10 mile(s):0
Sky conditions: clear
Temperature: 61.0 F (16.1 C)
Dew Point: 51.1 F (10.6 C)
Relative Humidity: 69%
Pressure (altimeter): 30.01 in. Hg (1016 hPa)
ob: KAVL 180954Z AUTO 16003KT 10SM CLR 16/11 A3001 RMK AO2 SLP139 T01610106
cycle: 10

Station Type Date Time Source
KAVL TAF 2019/04/18 06:39 UTC NOAA

TAF KAVL 180535Z 1806/1906 18006KT P6SM SCT250
FM181300 18007KT P6SM SCT200
FM181900 18011G20KT P6SM SCT030 BKN040 PROB30 1902/1904 4SM -SHRA OVC025
FM190400 16010G17KT P6SM VCSH SCT015 OVC025

Example: see airport list